Time;durP1;ratioP1;P1;durP2;ratioP2;P2;SDS_P1;SDS_P2;PMS_P1;PMS_P2;Temp;Humidity;BMP_temperature;BMP_pressure;BME280_temperature;BME280_humidity;BME280_pressure;Samples;Min_cycle;Max_cycle;Signal;HPM_P1;HPM_P2
2022/06/20 00:02:21;;;;;;;14.13;2.38;;;;;;;15.12;69.50;101341.63;5048802;28;20108;-56
2022/06/20 00:04:49;;;;;;;11.13;2.28;;;;;;;15.06;68.98;101331.69;5046500;28;20040;-55
2022/06/20 00:07:15;;;;;;;9.90;2.20;;;;;;;15.06;68.71;101334.34;5049472;28;20025;-55
2022/06/20 00:09:40;;;;;;;8.80;2.25;;;;;;;15.03;68.96;101342.72;5050716;28;20033;-56
2022/06/20 00:12:08;;;;;;;11.30;2.28;;;;;;;15.02;69.12;101340.25;5049384;28;20032;-57
2022/06/20 00:14:33;;;;;;;10.40;2.30;;;;;;;15.01;68.65;101323.38;5048703;28;20040;-56
2022/06/20 00:16:58;;;;;;;12.60;2.75;;;;;;;14.99;69.13;101321.91;5042266;28;20025;-56
2022/06/20 00:19:23;;;;;;;13.88;2.20;;;;;;;14.98;69.19;101320.25;5047175;28;20029;-56
2022/06/20 00:21:49;;;;;;;11.48;2.58;;;;;;;14.96;68.99;101331.13;5046309;28;20159;-56
2022/06/20 00:24:14;;;;;;;13.32;2.50;;;;;;;14.95;68.92;101334.81;5044564;28;20040;-56
2022/06/20 00:26:39;;;;;;;11.98;2.63;;;;;;;14.93;68.81;101331.50;5049029;28;20081;-56
2022/06/20 00:29:07;;;;;;;13.98;2.28;;;;;;;14.91;68.88;101340.75;5048351;28;20303;-56
2022/06/20 00:31:34;;;;;;;12.63;2.28;;;;;;;14.91;68.68;101343.41;5045890;28;20028;-55
2022/06/20 00:33:59;;;;;;;13.25;2.10;;;;;;;14.87;69.10;101364.34;5047405;28;20036;-55
2022/06/20 00:36:25;;;;;;;9.88;2.03;;;;;;;14.86;69.08;101370.72;5047579;28;20384;-55
2022/06/20 00:38:54;;;;;;;10.75;2.10;;;;;;;14.82;69.24;101391.66;5048877;28;20017;-55
2022/06/20 00:41:24;;;;;;;9.07;2.15;;;;;;;14.82;69.01;101396.16;5044541;28;20503;-56
2022/06/20 00:43:52;;;;;;;12.80;2.10;;;;;;;14.80;69.23;101417.75;5048520;28;20044;-55
2022/06/20 00:46:25;;;;;;;8.48;2.40;;;;;;;14.78;69.10;101448.38;5045544;28;20392;-56
2022/06/20 00:49:08;;;;;;;7.78;1.83;;;;;;;14.62;69.43;101464.56;5050638;28;20062;-56
2022/06/20 00:51:39;;;;;;;10.52;2.60;;;;;;;14.43;69.27;101461.38;5044079;28;20045;-54
2022/06/20 00:54:11;;;;;;;12.13;2.97;;;;;;;14.44;69.87;101476.38;5041866;28;20021;-56
2022/06/20 00:56:53;;;;;;;9.82;2.45;;;;;;;14.44;70.16;101502.28;5046461;28;20497;-54
2022/06/20 00:59:40;;;;;;;8.38;2.10;;;;;;;14.28;70.95;101521.94;5047569;28;20029;-56
2022/06/20 01:02:06;;;;;;;13.90;2.20;;;;;;;14.04;71.69;101541.63;5043666;28;20021;-55
2022/06/20 01:04:39;;;;;;;9.05;2.30;;;;;;;13.86;71.58;101541.88;5046250;28;20031;-56
2022/06/20 01:07:16;;;;;;;11.73;2.25;;;;;;;13.74;72.27;101531.75;5046267;28;20025;-56
2022/06/20 01:09:46;;;;;;;10.63;2.35;;;;;;;13.73;72.48;101522.91;5044377;28;20017;-56
2022/06/20 01:12:16;;;;;;;9.65;2.33;;;;;;;13.75;72.38;101510.22;5045340;28;20362;-54
2022/06/20 01:14:41;;;;;;;13.70;2.67;;;;;;;13.85;72.45;101497.47;5044160;28;20021;-56
2022/06/20 01:17:35;;;;;;;10.35;2.33;;;;;;;13.97;72.79;101483.75;5044539;28;20083;-55
2022/06/20 01:20:03;;;;;;;11.57;2.60;;;;;;;13.99;73.27;101477.22;5046764;28;20038;-55
2022/06/20 01:22:36;;;;;;;7.90;1.93;;;;;;;14.11;72.91;101474.94;5047921;28;20040;-57
2022/06/20 01:25:27;;;;;;;9.65;3.13;;;;;;;14.17;73.36;101474.28;5044944;28;20121;-55
2022/06/20 01:27:53;;;;;;;10.88;2.50;;;;;;;14.16;73.03;101462.72;5015408;28;20049;-56
2022/06/20 01:30:21;;;;;;;12.18;2.38;;;;;;;14.20;73.24;101455.22;5046884;28;20621;-54
2022/06/20 01:32:47;;;;;;;11.48;2.47;;;;;;;14.23;73.24;101445.00;5040678;28;20029;-56
2022/06/20 01:37:23;;;;;;;12.98;2.72;;;;;;;14.26;73.88;101435.78;5042030;28;20021;-56
2022/06/20 01:38:04;;;;;;;11.20;2.42;;;;;;;14.29;73.41;101442.59;5041629;28;20497;-56
2022/06/20 01:40:30;;;;;;;10.98;2.10;;;;;;;14.31;73.62;101444.09;5044728;28;20044;-54
2022/06/20 01:42:55;;;;;;;11.85;2.42;;;;;;;14.33;73.21;101442.06;5052765;28;20025;-55
2022/06/20 01:48:11;;;;;;;11.43;2.47;;;;;;;14.32;73.29;101428.88;5046418;28;20514;-56
2022/06/20 01:50:38;;;;;;;10.90;2.25;;;;;;;14.32;73.38;101412.84;5047310;28;20021;-56
2022/06/20 01:53:07;;;;;;;6.63;2.00;;;;;;;14.31;73.46;101417.38;5045845;28;20024;-56
2022/06/20 01:55:34;;;;;;;10.95;2.28;;;;;;;14.29;73.03;101410.53;5045463;28;20028;-56
2022/06/20 01:58:11;;;;;;;15.05;2.65;;;;;;;14.31;73.22;101406.69;5046308;28;20021;-55
2022/06/20 02:00:37;;;;;;;11.32;2.53;;;;;;;14.30;73.12;101397.00;5044916;28;20052;-55
2022/06/20 02:03:09;;;;;;;13.50;2.38;;;;;;;14.27;73.01;101390.19;5047516;28;20063;-56
2022/06/20 02:05:35;;;;;;;8.88;2.33;;;;;;;14.24;72.87;101405.75;5047422;28;20029;-56
2022/06/20 02:08:04;;;;;;;9.48;2.20;;;;;;;14.23;73.03;101407.59;5052525;28;20031;-56
2022/06/20 02:10:37;;;;;;;11.10;2.40;;;;;;;14.23;72.96;101404.09;5044920;28;20044;-55
2022/06/20 02:13:03;;;;;;;8.90;2.38;;;;;;;14.17;73.00;101394.97;5039328;28;20017;-56
2022/06/20 02:15:31;;;;;;;12.82;2.47;;;;;;;14.23;73.41;101404.09;5047517;28;20033;-55
2022/06/20 02:17:59;;;;;;;7.78;2.13;;;;;;;14.22;73.09;101389.06;5044239;28;20104;-55
2022/06/20 02:20:28;;;;;;;9.07;2.28;;;;;;;14.19;73.02;101378.75;5044218;28;20107;-55
2022/06/20 02:22:54;;;;;;;10.50;2.53;;;;;;;14.17;73.49;101367.41;5044458;28;20040;-55
2022/06/20 02:25:24;;;;;;;12.05;2.50;;;;;;;14.16;73.42;101355.88;5047532;28;20082;-53
2022/06/20 02:28:21;;;;;;;8.57;2.50;;;;;;;14.23;73.60;101356.00;5043935;28;20057;-55
2022/06/20 02:30:47;;;;;;;12.27;2.78;;;;;;;14.16;73.24;101358.53;5043458;28;20032;-56
2022/06/20 02:33:19;;;;;;;9.32;2.33;;;;;;;14.15;73.38;101359.56;5047189;28;20051;-56
2022/06/20 02:35:44;;;;;;;7.55;2.40;;;;;;;14.14;73.53;101357.06;5042832;28;20280;-54
2022/06/20 02:38:10;;;;;;;9.45;2.20;;;;;;;14.12;73.56;101351.06;5044250;28;20079;-56
2022/06/20 02:40:41;;;;;;;7.85;2.25;;;;;;;14.11;73.29;101346.75;5045698;28;20289;-56
2022/06/20 02:43:31;;;;;;;12.07;2.58;;;;;;;14.09;73.24;101356.78;5041479;28;20017;-55
2022/06/20 02:45:58;;;;;;;9.43;2.75;;;;;;;14.00;73.04;101353.38;5040685;28;20104;-56
2022/06/20 02:48:27;;;;;;;10.77;2.40;;;;;;;13.93;73.00;101355.09;5043823;28;20036;-56
2022/06/20 02:50:57;;;;;;;8.70;2.40;;;;;;;13.94;73.19;101346.09;5042012;28;20384;-56
2022/06/20 02:53:43;;;;;;;9.95;2.30;;;;;;;13.97;73.08;101331.53;5045342;28;20029;-55
2022/06/20 02:56:14;;;;;;;10.52;2.13;;;;;;;13.94;72.67;101328.22;5045734;28;20086;-55
2022/06/20 02:58:43;;;;;;;5.68;2.10;;;;;;;13.91;72.58;101327.75;5043650;28;20496;-55
2022/06/20 03:01:28;;;;;;;7.97;2.35;;;;;;;13.92;73.27;101326.75;5045557;28;20564;-56
2022/06/20 03:03:55;;;;;;;8.85;2.20;;;;;;;13.86;73.00;101317.59;5040562;28;20029;-55
2022/06/20 03:06:31;;;;;;;9.32;2.35;;;;;;;13.89;73.01;101295.91;5045115;28;20473;-55
2022/06/20 03:08:57;;;;;;;8.25;2.13;;;;;;;13.90;72.92;101286.06;5044798;28;20090;-56
2022/06/20 03:11:25;;;;;;;8.40;2.25;;;;;;;13.88;73.04;101293.41;5048953;28;20033;-56
2022/06/20 03:13:51;;;;;;;8.07;2.33;;;;;;;13.87;73.25;101284.53;5047164;28;20114;-55
2022/06/20 03:16:17;;;;;;;7.47;2.28;;;;;;;13.89;72.74;101277.22;5045928;28;20033;-55
2022/06/20 03:18:45;;;;;;;12.32;3.17;;;;;;;13.87;73.15;101267.69;5046714;28;20043;-56
2022/06/20 03:21:11;;;;;;;8.82;2.65;;;;;;;13.87;73.38;101278.38;5047953;28;20028;-55
2022/06/20 03:23:37;;;;;;;5.50;2.45;;;;;;;13.90;73.41;101286.88;5045880;28;20021;-56
2022/06/20 03:26:06;;;;;;;9.20;2.47;;;;;;;13.90;73.87;101300.22;5047476;28;20473;-55
2022/06/20 03:28:33;;;;;;;9.35;2.38;;;;;;;13.87;73.76;101299.72;5047700;28;20666;-56
2022/06/20 03:31:00;;;;;;;9.95;2.45;;;;;;;13.87;74.39;101305.91;5047367;28;20075;-56
2022/06/20 03:33:26;;;;;;;13.88;2.42;;;;;;;13.91;74.37;101315.25;5048388;28;20473;-56
2022/06/20 03:35:57;;;;;;;10.07;2.40;;;;;;;13.92;75.02;101330.25;5045475;28;20025;-54
2022/06/20 03:38:23;;;;;;;6.38;2.00;;;;;;;13.90;75.10;101332.25;5050040;28;20036;-56
2022/06/20 03:40:49;;;;;;;8.15;1.75;;;;;;;13.93;75.15;101334.56;5046975;28;20033;-55
2022/06/20 03:43:18;;;;;;;7.38;2.45;;;;;;;13.95;74.90;101340.56;5049015;28;20103;-56
2022/06/20 03:45:54;;;;;;;12.52;2.20;;;;;;;14.02;75.43;101335.31;5053496;28;20447;-55
2022/06/20 03:48:24;;;;;;;9.52;2.20;;;;;;;14.02;75.33;101327.31;5057874;28;20388;-55
2022/06/20 03:50:52;;;;;;;10.98;2.40;;;;;;;14.03;75.14;101333.47;5048004;28;20021;-56
2022/06/20 03:53:33;;;;;;;8.35;2.28;;;;;;;14.06;74.93;101349.97;5049197;28;20710;-55
2022/06/20 03:56:07;;;;;;;10.98;2.63;;;;;;;14.08;74.88;101350.63;5053049;28;20029;-54
2022/06/20 03:58:38;;;;;;;6.93;2.33;;;;;;;14.13;75.17;101363.41;5046995;28;20254;-54
2022/06/20 04:01:10;;;;;;;10.68;2.40;;;;;;;14.14;75.08;101373.94;5047691;28;20175;-55
2022/06/20 04:03:47;;;;;;;13.20;2.40;;;;;;;14.18;75.17;101375.25;5047512;28;20035;-55
2022/06/20 04:06:34;;;;;;;13.82;2.20;;;;;;;14.20;75.11;101381.25;5045451;28;20463;-56
2022/06/20 04:11:57;;;;;;;11.95;2.38;;;;;;;14.24;74.96;101381.72;5048582;28;20059;-56
2022/06/20 04:14:29;;;;;;;9.43;2.00;;;;;;;14.26;74.93;101382.34;5048017;28;20507;-54
2022/06/20 04:18:27;;;;;;;10.93;2.58;;;;;;;14.33;74.64;101387.78;5047548;28;20025;-56
2022/06/20 04:19:53;;;;;;;11.18;2.00;;;;;;;14.35;74.68;101396.44;5046805;28;20037;-56
2022/06/20 04:22:27;;;;;;;8.90;2.00;;;;;;;14.36;74.72;101398.94;5048881;28;20024;-56
2022/06/20 04:25:16;;;;;;;12.93;2.72;;;;;;;14.42;75.18;101402.72;5045169;28;20404;-56
2022/06/20 04:27:48;;;;;;;10.77;2.28;;;;;;;14.41;74.70;101411.75;5047281;28;20558;-55
2022/06/20 04:30:24;;;;;;;8.05;2.30;;;;;;;14.45;74.97;101408.56;5046255;28;20033;-56
2022/06/20 04:32:54;;;;;;;8.55;2.42;;;;;;;14.43;75.10;101412.44;5048211;28;20434;-56
2022/06/20 04:35:29;;;;;;;13.05;3.42;;;;;;;14.45;75.46;101419.25;5042026;28;20654;-55
2022/06/20 04:37:59;;;;;;;11.88;2.70;;;;;;;14.44;75.49;101414.91;5043585;28;20432;-56
2022/06/20 04:40:31;;;;;;;9.48;2.35;;;;;;;14.45;75.40;101411.25;5047530;28;20744;-55
2022/06/20 04:43:10;;;;;;;10.02;2.70;;;;;;;14.40;75.57;101415.44;5046442;28;20036;-56
2022/06/20 04:45:43;;;;;;;8.57;2.40;;;;;;;14.46;75.81;101414.78;5045878;28;20024;-53
2022/06/20 04:48:20;;;;;;;9.45;2.42;;;;;;;14.46;75.30;101420.94;5043757;28;20033;-56
2022/06/20 04:50:56;;;;;;;6.65;2.35;;;;;;;14.49;75.43;101422.41;5047733;28;20497;-56
2022/06/20 04:53:28;;;;;;;7.15;2.20;;;;;;;14.46;75.10;101431.63;5043400;28;20393;-55
2022/06/20 04:55:56;;;;;;;9.43;2.08;;;;;;;14.49;75.10;101443.81;5045260;28;20029;-56
2022/06/20 04:58:29;;;;;;;10.90;1.90;;;;;;;14.50;74.60;101443.63;5046548;28;20029;-56
2022/06/20 05:00:56;;;;;;;11.10;2.30;;;;;;;14.55;74.95;101430.53;5045324;28;20040;-56
2022/06/20 05:03:29;;;;;;;10.20;2.45;;;;;;;14.62;74.67;101435.97;5044137;28;20020;-54
2022/06/20 05:05:57;;;;;;;8.68;2.42;;;;;;;14.62;74.31;101435.16;5037565;28;20035;-55
2022/06/20 05:08:34;;;;;;;7.80;1.65;;;;;;;14.60;74.15;101431.81;5033927;28;20041;-56
2022/06/20 05:11:18;;;;;;;9.57;2.25;;;;;;;14.60;74.16;101434.50;5043846;28;20100;-55
2022/06/20 05:13:51;;;;;;;10.48;2.40;;;;;;;14.62;73.86;101435.16;5045768;28;20025;-55
2022/06/20 05:16:22;;;;;;;8.75;1.95;;;;;;;14.61;73.72;101438.84;5041708;28;20070;-55
2022/06/20 05:18:57;;;;;;;8.25;2.10;;;;;;;14.63;73.54;101442.97;5037658;28;20099;-56
2022/06/20 05:21:27;;;;;;;12.45;2.50;;;;;;;14.65;73.74;101440.13;5045589;28;20025;-56
2022/06/20 05:23:57;;;;;;;10.55;2.08;;;;;;;14.68;73.64;101434.41;5033263;28;20476;-56
2022/06/20 05:26:33;;;;;;;9.10;2.45;;;;;;;14.72;73.47;101441.88;5033688;28;20063;-55
2022/06/20 05:29:04;;;;;;;6.70;1.95;;;;;;;14.74;73.32;101455.88;5041645;28;20086;-56
2022/06/20 05:31:34;;;;;;;8.50;2.42;;;;;;;14.79;73.37;101461.53;5044814;28;20177;-57
2022/06/20 05:34:10;;;;;;;9.93;2.40;;;;;;;14.82;73.77;101463.84;5044539;28;20059;-56
2022/06/20 05:37:03;;;;;;;8.73;2.15;;;;;;;14.86;73.66;101458.97;5047616;28;20028;-56
2022/06/20 05:39:44;;;;;;;6.70;2.00;;;;;;;14.92;73.31;101457.41;5039754;28;20511;-54
2022/06/20 05:42:13;;;;;;;8.25;2.10;;;;;;;14.92;72.99;101454.72;5043580;28;20029;-56
2022/06/20 05:44:38;;;;;;;;;;;;;;;15.08;73.13;101458.06;5044591;28;20027;-56
2022/06/20 05:47:05;;;;;;;6.93;2.00;;;;;;;14.98;72.85;101457.47;5043885;28;20288;-55
2022/06/20 05:49:43;;;;;;;6.00;2.00;;;;;;;15.01;72.79;101451.75;5044616;28;20056;-56
2022/06/20 05:52:11;;;;;;;10.80;2.15;;;;;;;15.02;72.84;101448.06;5038957;28;20503;-56
2022/06/20 05:54:50;;;;;;;8.02;2.47;;;;;;;15.09;72.84;101458.88;5046144;28;20045;-55
2022/06/20 05:57:20;;;;;;;10.18;2.13;;;;;;;15.12;73.04;101463.84;5038066;28;20489;-55
2022/06/20 05:59:54;;;;;;;6.88;2.13;;;;;;;15.11;72.72;101472.91;5043732;28;20021;-56
2022/06/20 06:02:34;;;;;;;8.00;2.33;;;;;;;15.13;72.74;101465.53;5044053;28;20071;-56
2022/06/20 06:05:19;;;;;;;8.77;2.20;;;;;;;15.16;72.77;101465.97;5041899;28;20088;-54
2022/06/20 06:08:16;;;;;;;7.85;2.50;;;;;;;15.20;72.88;101471.78;5043589;28;20032;-56
2022/06/20 06:11:15;;;;;;;7.68;2.10;;;;;;;15.26;72.68;101473.72;5044393;28;20032;-56
2022/06/20 06:13:59;;;;;;;7.28;2.13;;;;;;;15.28;72.50;101470.84;5044631;28;20033;-53
2022/06/20 06:16:48;;;;;;;9.30;2.10;;;;;;;15.24;72.26;101477.59;5045780;28;20028;-55
2022/06/20 06:19:23;;;;;;;8.65;2.00;;;;;;;15.18;71.79;101485.34;5028414;28;20137;-56
2022/06/20 06:21:49;;;;;;;7.05;1.88;;;;;;;15.19;71.35;101481.66;5042979;28;20080;-55
2022/06/20 06:24:20;;;;;;;6.90;1.80;;;;;;;15.21;71.37;101489.50;5046143;28;20031;-56
2022/06/20 06:26:48;;;;;;;6.90;2.10;;;;;;;15.27;71.50;101490.59;5041940;28;20025;-55
2022/06/20 06:29:20;;;;;;;11.43;2.38;;;;;;;15.29;71.36;101480.53;5046079;28;20029;-55
2022/06/20 06:31:48;;;;;;;10.93;2.75;;;;;;;15.31;71.06;101483.84;5042137;28;20032;-54
2022/06/20 06:34:32;;;;;;;12.15;2.20;;;;;;;15.33;70.84;101476.50;5040761;28;20107;-56
2022/06/20 06:37:03;;;;;;;8.98;2.50;;;;;;;15.42;71.10;101489.59;5049440;28;20031;-56
2022/06/20 06:39:36;;;;;;;7.10;2.17;;;;;;;15.44;70.70;101474.16;5047640;28;20103;-56
2022/06/20 06:42:04;;;;;;;9.18;2.08;;;;;;;15.47;70.76;101479.13;5038563;28;20063;-56
2022/06/20 06:44:40;;;;;;;6.55;1.90;;;;;;;15.57;70.53;101478.84;5038641;28;20503;-56
2022/06/20 06:47:17;;;;;;;9.18;2.50;;;;;;;15.58;70.08;101483.19;5021924;28;20036;-56
2022/06/20 06:49:49;;;;;;;11.60;2.38;;;;;;;15.66;70.26;101495.69;5046202;28;20132;-55
2022/06/20 06:52:27;;;;;;;9.05;2.25;;;;;;;15.72;69.62;101498.44;5054116;28;20029;-56
2022/06/20 06:55:42;;;;;;;6.35;2.15;;;;;;;15.87;69.49;101500.22;5043469;28;20017;-55
2022/06/20 06:58:10;;;;;;;9.50;2.45;;;;;;;15.95;69.66;101497.44;5005173;28;20488;-55
2022/06/20 07:00:48;;;;;;;8.40;2.72;;;;;;;16.15;69.00;101498.47;5052355;28;20025;-55
2022/06/20 07:03:21;;;;;;;8.70;2.60;;;;;;;16.25;68.66;101504.34;5044881;28;20428;-54
2022/06/20 07:06:16;;;;;;;9.95;2.53;;;;;;;16.38;68.19;101504.47;5056025;28;20027;-56
2022/06/20 07:08:55;;;;;;;11.15;2.80;;;;;;;16.47;67.69;101507.00;5046136;28;20032;-56
2022/06/20 07:11:24;;;;;;;8.07;2.72;;;;;;;16.56;67.11;101508.56;5053508;28;20028;-55
2022/06/20 07:14:00;;;;;;;9.52;2.70;;;;;;;16.64;67.03;101514.59;5054882;28;20017;-55
2022/06/20 07:16:33;;;;;;;7.97;2.28;;;;;;;16.66;66.93;101523.31;5050760;28;20040;-56
2022/06/20 07:19:00;;;;;;;8.65;2.72;;;;;;;16.60;66.09;101521.38;5047780;28;20032;-55
2022/06/20 07:21:28;;;;;;;5.43;2.10;;;;;;;16.51;65.99;101522.53;5053467;28;20083;-55
2022/06/20 07:24:01;;;;;;;5.35;2.08;;;;;;;16.51;65.54;101527.91;5050570;28;20543;-56
2022/06/20 07:26:34;;;;;;;8.75;2.70;;;;;;;16.47;65.05;101529.28;5052576;28;20794;-55
2022/06/20 07:29:05;;;;;;;7.03;2.20;;;;;;;16.46;64.98;101529.47;5055151;28;20495;-55
2022/06/20 07:31:45;;;;;;;7.72;2.38;;;;;;;16.46;64.29;101522.25;5050471;28;20508;-55
2022/06/20 07:34:14;;;;;;;8.18;2.10;;;;;;;16.43;64.16;101526.16;5055124;28;20032;-55
2022/06/20 07:36:47;;;;;;;8.10;2.33;;;;;;;16.42;64.20;101537.09;5049886;28;20032;-55
2022/06/20 07:39:23;;;;;;;9.95;2.80;;;;;;;16.44;63.97;101529.66;5046039;28;20020;-56
2022/06/20 07:42:11;;;;;;;9.10;2.90;;;;;;;16.54;63.94;101524.84;5049996;28;20024;-57
2022/06/20 07:44:48;;;;;;;8.75;2.42;;;;;;;16.57;64.14;101528.97;5050955;28;20017;-56
2022/06/20 07:47:18;;;;;;;7.30;2.85;;;;;;;16.52;63.20;101521.53;5052512;28;20053;-56
2022/06/20 07:49:53;;;;;;;11.63;2.65;;;;;;;16.56;62.86;101530.84;5051464;28;20074;-56
2022/06/20 07:52:37;;;;;;;8.23;2.58;;;;;;;16.57;62.65;101529.81;5055484;28;20024;-56
2022/06/20 07:55:08;;;;;;;8.48;2.45;;;;;;;16.57;62.21;101545.91;5050530;28;20070;-56
2022/06/20 07:57:39;;;;;;;8.63;2.50;;;;;;;16.57;61.57;101531.66;5051024;28;20052;-55
2022/06/20 08:00:20;;;;;;;7.18;2.22;;;;;;;16.69;61.64;101538.19;5051844;28;20020;-56
2022/06/20 08:02:57;;;;;;;5.47;2.25;;;;;;;16.73;61.47;101544.81;5049314;28;20510;-55
2022/06/20 08:05:46;;;;;;;7.28;2.63;;;;;;;16.90;61.72;101535.47;5049306;28;20025;-56
2022/06/20 08:08:25;;;;;;;10.10;2.60;;;;;;;17.22;61.86;101528.66;5038584;28;20083;-56
2022/06/20 08:10:58;;;;;;;11.38;2.90;;;;;;;17.43;61.78;101538.50;5051056;28;20021;-55
2022/06/20 08:13:42;;;;;;;8.15;2.60;;;;;;;17.47;60.19;101541.63;5048560;28;20036;-54
2022/06/20 08:16:14;;;;;;;8.00;2.60;;;;;;;17.41;59.62;101537.88;5048855;28;20055;-54
2022/06/20 08:18:41;;;;;;;9.10;2.15;;;;;;;17.47;58.47;101536.25;5043840;28;20036;-55
2022/06/20 08:21:12;;;;;;;6.97;2.20;;;;;;;17.49;58.78;101535.00;5047637;28;20029;-53
2022/06/20 08:23:46;;;;;;;6.85;2.35;;;;;;;17.51;58.46;101537.50;5054079;28;20016;-55
2022/06/20 08:26:17;;;;;;;11.23;2.80;;;;;;;17.40;58.03;101538.06;5046138;28;20059;-56
2022/06/20 08:28:53;;;;;;;7.82;2.35;;;;;;;17.24;57.73;101548.09;5041408;28;20051;-56
2022/06/20 08:31:27;;;;;;;6.35;2.20;;;;;;;17.20;57.29;101551.38;5049463;28;20029;-55
2022/06/20 08:34:04;;;;;;;4.88;2.10;;;;;;;17.15;57.60;101549.28;5047709;28;20096;-56
2022/06/20 08:36:51;;;;;;;5.65;2.20;;;;;;;17.28;57.69;101553.88;5049736;28;20020;-54
2022/06/20 08:39:33;;;;;;;9.30;2.08;;;;;;;17.33;57.27;101551.44;5047745;28;20035;-56
2022/06/20 08:42:23;;;;;;;8.45;2.60;;;;;;;17.59;57.30;101556.94;5053097;28;20017;-56
2022/06/20 08:45:00;;;;;;;6.78;2.35;;;;;;;17.56;57.88;101556.53;5048766;28;20029;-56
2022/06/20 08:47:53;;;;;;;7.97;2.83;;;;;;;17.48;57.75;101568.25;5045675;28;20534;-55
2022/06/20 08:50:38;;;;;;;8.25;2.70;;;;;;;17.50;57.49;101573.44;5045547;28;20048;-56
2022/06/20 08:53:22;;;;;;;9.15;2.90;;;;;;;17.55;57.83;101563.75;5050335;28;20066;-54
2022/06/20 08:56:05;;;;;;;6.25;2.50;;;;;;;17.54;57.49;101577.38;5051363;28;20476;-55
2022/06/20 08:58:46;;;;;;;7.90;2.70;;;;;;;17.42;56.23;101582.50;5048172;28;20021;-55
2022/06/20 09:01:29;;;;;;;6.00;2.30;;;;;;;17.38;54.84;101581.22;5046317;28;20104;-56
2022/06/20 09:04:29;;;;;;;6.25;2.28;;;;;;;17.44;54.38;101588.50;5045564;28;20040;-56
2022/06/20 09:07:38;;;;;;;8.05;2.78;;;;;;;17.67;55.07;101590.06;5048122;28;20033;-54
2022/06/20 09:10:18;;;;;;;10.50;3.00;;;;;;;18.17;55.31;101576.22;4997953;28;20482;-56
2022/06/20 09:13:08;;;;;;;8.13;2.45;;;;;;;18.63;54.43;101580.91;5052092;28;20103;-55
2022/06/20 09:15:47;;;;;;;6.82;2.40;;;;;;;19.21;53.86;101578.41;5051340;28;20074;-56
2022/06/20 09:18:18;;;;;;;;;;;;;;;19.47;54.20;101580.22;5036342;28;20033;-56
2022/06/20 09:20:51;;;;;;;9.10;2.83;;;;;;;19.66;52.68;101581.22;5040019;28;19917;-55
2022/06/20 09:23:44;;;;;;;9.93;2.80;;;;;;;19.56;51.51;101589.75;5043896;28;20028;-55
2022/06/20 09:26:18;;;;;;;6.50;2.67;;;;;;;19.19;50.78;101591.25;5042608;28;20051;-56
2022/06/20 09:29:18;;;;;;;8.25;2.83;;;;;;;19.37;51.95;101590.59;5041562;28;20188;-55
2022/06/20 09:31:53;;;;;;;10.93;2.90;;;;;;;19.61;52.19;101589.13;5047033;28;20024;-54
2022/06/20 09:35:00;;;;;;;9.05;2.90;;;;;;;19.88;51.50;101590.69;5050781;28;20028;-54
2022/06/20 09:37:47;;;;;;;9.43;2.70;;;;;;;19.91;50.47;101584.03;5041456;28;20024;-54
2022/06/20 09:40:15;;;;;;;10.75;2.70;;;;;;;19.96;50.59;101579.69;5043890;28;20017;-54
2022/06/20 09:42:58;;;;;;;13.07;3.20;;;;;;;20.10;50.16;101586.66;5046320;28;20032;-53
2022/06/20 09:45:39;;;;;;;9.35;2.55;;;;;;;20.19;49.05;101592.63;5044966;28;20021;-56
2022/06/20 09:48:44;;;;;;;7.70;2.70;;;;;;;20.30;49.74;101586.56;5046010;28;20029;-56
2022/06/20 09:51:41;;;;;;;9.07;2.53;;;;;;;20.68;49.13;101583.84;5043132;28;20024;-56
2022/06/20 09:54:25;;;;;;;7.10;2.28;;;;;;;20.80;48.86;101585.81;5042858;28;20013;-55
2022/06/20 09:56:56;;;;;;;9.68;3.00;;;;;;;20.57;48.77;101589.94;5043216;28;20032;-56
2022/06/20 09:59:37;;;;;;;8.70;2.50;;;;;;;20.08;47.43;101586.03;5045497;28;20074;-56
2022/06/20 10:02:25;;;;;;;7.32;2.75;;;;;;;20.17;47.97;101589.31;5047628;28;20036;-56
2022/06/20 10:05:19;;;;;;;7.35;2.90;;;;;;;20.37;48.65;101589.22;5039534;28;20040;-56
2022/06/20 10:07:53;;;;;;;10.48;2.55;;;;;;;20.56;48.58;101587.47;5044367;28;20248;-56
2022/06/20 10:10:18;;;;;;;7.90;2.83;;;;;;;20.53;47.44;101593.28;5044187;28;20037;-54
2022/06/20 10:12:51;;;;;;;12.98;3.33;;;;;;;20.16;46.81;101589.53;5046938;28;20082;-56
2022/06/20 10:15:22;;;;;;;10.10;3.28;;;;;;;19.97;47.66;101589.44;5044169;28;20025;-55
2022/06/20 10:17:53;;;;;;;11.48;3.40;;;;;;;20.04;48.87;101594.78;5039110;28;20080;-55
2022/06/20 10:20:32;;;;;;;11.80;2.80;;;;;;;20.32;50.09;101602.53;5042261;28;20033;-56
2022/06/20 10:23:13;;;;;;;10.05;2.97;;;;;;;20.46;49.17;101603.28;5045975;28;20024;-56
2022/06/20 10:25:50;;;;;;;7.47;2.65;;;;;;;20.38;48.17;101609.75;5042984;28;20056;-55
2022/06/20 10:28:34;;;;;;;7.97;3.13;;;;;;;20.73;48.84;101611.00;5046130;28;20056;-55
2022/06/20 10:31:08;;;;;;;10.18;3.10;;;;;;;20.91;48.08;101595.91;5038984;28;20047;-55
2022/06/20 10:34:00;;;;;;;9.40;2.95;;;;;;;21.14;47.86;101615.03;5045315;28;20029;-56
2022/06/20 10:36:46;;;;;;;7.85;2.72;;;;;;;21.40;47.63;101607.78;5045669;28;20029;-55
2022/06/20 10:39:37;;;;;;;9.52;3.15;;;;;;;21.65;47.67;101603.09;5048086;28;20040;-56
2022/06/20 10:42:30;;;;;;;8.48;2.80;;;;;;;21.84;47.88;101615.59;5049364;28;20087;-56
2022/06/20 10:45:31;;;;;;;8.40;2.80;;;;;;;21.73;47.35;101623.63;5049048;28;20048;-56
2022/06/20 10:48:27;;;;;;;8.18;2.85;;;;;;;21.56;47.09;101621.50;5047573;28;20033;-56
2022/06/20 10:50:58;;;;;;;7.55;2.65;;;;;;;21.65;47.30;101627.44;5052742;28;20511;-55
2022/06/20 10:53:39;;;;;;;7.72;2.85;;;;;;;21.87;46.79;101619.72;5047915;28;20547;-56
2022/06/20 10:56:08;;;;;;;5.93;2.80;;;;;;;22.00;45.90;101626.84;5024910;28;20087;-55
2022/06/20 10:58:54;;;;;;;8.45;2.83;;;;;;;21.86;45.05;101632.41;5044593;28;20032;-56
2022/06/20 11:01:31;;;;;;;11.20;3.00;;;;;;;21.45;44.56;101629.53;5046823;28;20017;-55
2022/06/20 11:04:15;;;;;;;10.48;3.00;;;;;;;21.34;45.72;101631.91;5047454;28;20055;-56
2022/06/20 11:07:04;;;;;;;8.43;3.22;;;;;;;21.69;46.92;101631.38;5047558;28;20032;-55
2022/06/20 11:10:13;;;;;;;10.10;2.67;;;;;;;21.63;45.68;101632.25;5049819;28;20036;-55
2022/06/20 11:13:07;;;;;;;9.65;3.15;;;;;;;21.33;44.40;101632.13;4994843;28;20066;-56
2022/06/20 11:15:55;;;;;;;10.07;3.20;;;;;;;21.12;44.86;101638.75;5047092;28;20546;-55
2022/06/20 11:18:34;;;;;;;10.68;2.60;;;;;;;21.03;45.34;101634.66;5038289;28;20029;-56
2022/06/20 11:21:12;;;;;;;9.27;2.45;;;;;;;21.30;45.21;101633.41;5047507;28;20037;-56
2022/06/20 11:23:55;;;;;;;7.45;2.50;;;;;;;21.71;45.50;101631.97;5049566;28;20051;-54
2022/06/20 11:26:36;;;;;;;7.03;2.42;;;;;;;22.00;45.00;101632.25;5048562;28;20021;-56
2022/06/20 11:29:17;;;;;;;6.35;2.53;;;;;;;22.05;43.74;101641.38;5042883;28;20526;-56
2022/06/20 11:32:08;;;;;;;11.00;2.75;;;;;;;21.95;43.31;101638.31;5042511;28;20506;-56
2022/06/20 11:34:55;;;;;;;8.35;2.20;;;;;;;21.86;43.64;101637.00;5043038;28;20060;-55
2022/06/20 11:37:37;;;;;;;6.07;2.33;;;;;;;21.93;43.08;101626.91;5042019;28;20486;-56
2022/06/20 11:40:08;;;;;;;7.85;2.45;;;;;;;21.77;41.50;101638.34;5043325;28;20060;-56
2022/06/20 11:42:58;;;;;;;7.85;2.45;;;;;;;21.61;41.84;101634.34;5040592;28;20581;-55
2022/06/20 11:45:42;;;;;;;8.35;2.50;;;;;;;21.46;42.29;101644.72;5042600;28;20025;-55
2022/06/20 11:48:33;;;;;;;11.95;2.55;;;;;;;21.61;43.45;101634.34;5049057;28;20020;-55
2022/06/20 11:51:13;;;;;;;8.15;2.50;;;;;;;21.76;43.55;101637.53;5045878;28;20016;-56
2022/06/20 11:53:50;;;;;;;6.72;2.63;;;;;;;21.88;42.47;101633.00;5051977;28;20020;-54
2022/06/20 11:56:19;;;;;;;6.43;2.60;;;;;;;21.81;42.36;101634.13;5049896;28;20025;-56
2022/06/20 11:59:12;;;;;;;10.77;2.67;;;;;;;21.93;43.04;101635.84;5048727;28;20032;-56
2022/06/20 12:01:50;;;;;;;8.68;2.40;;;;;;;21.78;41.49;101637.28;5043520;28;20032;-54
2022/06/20 12:04:29;;;;;;;;;;;;;;;21.91;41.24;101634.44;5043335;28;20027;-54
2022/06/20 12:07:09;;;;;;;6.65;2.30;;;;;;;21.57;41.69;101638.56;5044420;28;20296;-56
2022/06/20 12:09:42;;;;;;;9.80;2.50;;;;;;;21.50;41.92;101638.63;5040378;28;20132;-53
2022/06/20 12:12:28;;;;;;;6.10;2.30;;;;;;;21.79;42.16;101628.97;5050080;28;20055;-56